Time;durP1;ratioP1;P1;durP2;ratioP2;P2;SDS_P1;SDS_P2;PMS_P1;PMS_P2;Temp;Humidity;BMP_temperature;BMP_pressure;BME280_temperature;BME280_humidity;BME280_pressure;Samples;Min_cycle;Max_cycle;Signal;HPM_P1;HPM_P2
2022/08/30 00:01:05;;;;;;;12.15;9.65;;;;;;;23.44;62.34;99934.22;5068748;28;20479;-31
2022/08/30 00:03:45;;;;;;;12.15;9.30;;;;;;;23.52;63.20;99940.81;5052381;28;20036;-31
2022/08/30 00:06:13;;;;;;;13.82;9.00;;;;;;;23.46;62.38;99926.56;5068841;28;20119;-31
2022/08/30 00:08:40;;;;;;;14.25;10.07;;;;;;;23.49;63.13;99934.09;5086920;28;20027;-30
2022/08/30 00:11:09;;;;;;;12.13;9.53;;;;;;;23.47;63.29;99942.56;5068792;28;20629;-31
2022/08/30 00:13:36;;;;;;;13.80;9.55;;;;;;;23.57;62.62;99940.72;5086756;28;20032;-30
2022/08/30 00:16:02;;;;;;;16.93;10.40;;;;;;;23.39;62.72;99931.59;5068598;28;20063;-31
2022/08/30 00:18:28;;;;;;;13.02;9.90;;;;;;;23.14;63.75;99922.91;5085527;28;20471;-32
2022/08/30 00:20:54;;;;;;;13.55;9.75;;;;;;;23.11;63.96;99945.31;5068729;28;20024;-31
2022/08/30 00:23:20;;;;;;;11.02;9.70;;;;;;;23.13;63.42;99940.34;5068520;28;20028;-29
2022/08/30 00:25:46;;;;;;;12.40;10.05;;;;;;;22.97;63.81;99920.00;5087116;28;20110;-33
2022/08/30 00:28:13;;;;;;;16.42;10.25;;;;;;;23.00;64.48;99936.50;5090868;28;20046;-31
2022/08/30 00:30:40;;;;;;;13.32;9.88;;;;;;;23.12;63.82;99944.19;5090927;28;20028;-28
2022/08/30 00:33:06;;;;;;;15.37;9.37;;;;;;;23.08;63.85;99931.50;5090962;28;20032;-32
2022/08/30 00:35:32;;;;;;;12.80;9.75;;;;;;;23.06;64.03;99934.53;5090647;28;20560;-30
2022/08/30 00:37:58;;;;;;;14.65;10.00;;;;;;;23.11;63.96;99937.16;5090701;28;20028;-31
2022/08/30 00:40:24;;;;;;;15.77;10.70;;;;;;;23.05;64.13;99917.41;5090648;28;20478;-29
2022/08/30 00:42:50;;;;;;;16.90;10.48;;;;;;;23.06;63.77;99910.84;5072228;28;20024;-30
2022/08/30 00:45:25;;;;;;;17.67;10.38;;;;;;;23.22;63.00;99935.78;5072241;28;20086;-29
2022/08/30 00:47:50;;;;;;;13.73;10.25;;;;;;;23.19;63.30;99933.69;5090655;28;20052;-29
2022/08/30 00:50:20;;;;;;;19.40;10.45;;;;;;;23.15;63.70;99931.88;5090533;28;20024;-31
2022/08/30 00:52:49;;;;;;;12.88;10.32;;;;;;;23.06;64.21;99923.63;5072465;28;20043;-33
2022/08/30 00:55:16;;;;;;;14.68;10.85;;;;;;;23.24;63.68;99930.84;5072630;28;20156;-31
2022/08/30 00:57:45;;;;;;;16.00;11.10;;;;;;;23.10;63.73;99924.63;5090777;28;20508;-30
2022/08/30 01:00:12;;;;;;;13.82;10.23;;;;;;;23.08;64.37;99917.91;5072138;28;20028;-31
2022/08/30 01:02:38;;;;;;;17.45;10.80;;;;;;;23.07;64.12;99914.38;5090327;28;20487;-31
2022/08/30 01:05:07;;;;;;;15.18;11.55;;;;;;;23.07;64.58;99930.72;5090533;28;20036;-34
2022/08/30 01:07:33;;;;;;;12.32;10.05;;;;;;;23.04;64.30;99914.97;5090419;28;20032;-29
2022/08/30 01:10:00;;;;;;;15.20;10.15;;;;;;;23.12;64.07;99919.69;5072048;28;20024;-30
2022/08/30 01:12:26;;;;;;;16.35;10.60;;;;;;;23.12;64.34;99927.06;5072124;28;20036;-29
2022/08/30 01:14:52;;;;;;;12.30;10.35;;;;;;;23.02;64.26;99911.75;5072073;28;20415;-35
2022/08/30 01:17:18;;;;;;;19.55;11.05;;;;;;;23.16;64.25;99917.97;5090490;28;20039;-30
2022/08/30 01:19:47;;;;;;;14.98;11.25;;;;;;;23.29;63.94;99938.06;5072072;28;20031;-28
2022/08/30 01:22:51;;;;;;;14.23;11.30;;;;;;;23.34;63.98;99937.19;5089660;28;20036;-29
2022/08/30 01:25:22;;;;;;;12.18;10.43;;;;;;;23.17;63.45;99916.88;4987936;28;20105;-28
2022/08/30 01:28:00;;;;;;;16.80;10.88;;;;;;;23.34;63.32;99940.69;4987476;28;20120;-34
2022/08/30 01:30:27;;;;;;;18.48;11.25;;;;;;;23.26;63.73;99928.63;5046613;28;20396;-33
2022/08/30 01:32:58;;;;;;;15.55;11.05;;;;;;;23.13;64.01;99944.97;5071694;28;20115;-29
2022/08/30 01:35:24;;;;;;;13.68;10.88;;;;;;;23.06;64.32;99929.09;5071634;28;20121;-28
2022/08/30 01:37:50;;;;;;;16.23;11.45;;;;;;;22.98;65.42;99936.00;5088906;28;20032;-29
2022/08/30 01:40:18;;;;;;;16.02;10.80;;;;;;;23.14;65.23;99946.59;5089834;28;20469;-28
2022/08/30 01:42:44;;;;;;;18.77;12.27;;;;;;;23.31;64.52;99945.94;5071161;28;20028;-29
2022/08/30 01:45:10;;;;;;;14.13;11.50;;;;;;;23.32;64.22;99932.03;5089630;28;20490;-29
2022/08/30 01:47:36;;;;;;;14.70;11.02;;;;;;;23.24;63.83;99925.41;5071166;28;20072;-29
2022/08/30 01:50:03;;;;;;;13.27;10.85;;;;;;;23.08;64.85;99937.75;5071247;28;20062;-28
2022/08/30 01:52:29;;;;;;;16.98;12.25;;;;;;;22.98;65.23;99932.50;5071527;28;20051;-33
2022/08/30 01:54:54;;;;;;;14.98;11.38;;;;;;;23.05;64.88;99938.38;5089562;28;20097;-29
2022/08/30 01:57:21;;;;;;;17.48;11.63;;;;;;;22.93;65.79;99943.50;5071206;28;20020;-31
2022/08/30 01:59:49;;;;;;;16.15;11.40;;;;;;;22.83;66.25;99925.47;5070956;28;20567;-29
2022/08/30 02:02:17;;;;;;;15.70;12.25;;;;;;;22.84;66.50;99922.47;5070835;28;20039;-33
2022/08/30 02:04:43;;;;;;;19.33;13.45;;;;;;;23.06;66.05;99937.25;5070876;28;20111;-28
2022/08/30 02:07:09;;;;;;;17.70;12.23;;;;;;;22.82;66.26;99924.69;5070932;28;20039;-34
2022/08/30 02:09:36;;;;;;;17.38;12.65;;;;;;;22.77;67.82;99927.47;5070813;28;20055;-30
2022/08/30 02:12:03;;;;;;;13.73;11.67;;;;;;;22.56;68.24;99926.31;5070458;28;20032;-31
2022/08/30 02:14:28;;;;;;;19.83;12.18;;;;;;;22.69;67.25;99930.13;5070518;28;20035;-29
2022/08/30 02:16:55;;;;;;;16.75;13.27;;;;;;;22.59;67.45;99918.31;5089205;28;20039;-29
2022/08/30 02:19:20;;;;;;;15.60;12.25;;;;;;;22.83;67.02;99933.63;5089251;28;20484;-29
2022/08/30 02:21:46;;;;;;;14.15;11.32;;;;;;;22.73;67.26;99931.91;5088695;28;20035;-36
2022/08/30 02:24:11;;;;;;;14.13;11.45;;;;;;;22.85;67.27;99934.94;5088905;28;20039;-28
2022/08/30 02:26:36;;;;;;;17.90;11.65;;;;;;;22.62;68.00;99925.09;5070352;28;20512;-29
2022/08/30 02:29:04;;;;;;;17.90;13.00;;;;;;;22.53;68.98;99932.31;5070641;28;20035;-30
2022/08/30 02:31:30;;;;;;;14.20;11.13;;;;;;;22.48;68.92;99932.44;5070418;28;20035;-31
2022/08/30 02:33:56;;;;;;;19.48;13.07;;;;;;;22.60;68.48;99921.88;5087223;28;20040;-33
2022/08/30 02:36:22;;;;;;;16.60;12.25;;;;;;;22.56;68.52;99920.88;5070606;28;20032;-29
2022/08/30 02:38:49;;;;;;;19.10;12.30;;;;;;;22.55;68.79;99935.56;5070291;28;20032;-31
2022/08/30 02:41:16;;;;;;;15.90;12.18;;;;;;;22.32;69.61;99921.84;5070185;28;20028;-30
2022/08/30 02:43:41;;;;;;;15.60;12.48;;;;;;;22.45;69.31;99931.94;5070133;28;20123;-28
2022/08/30 02:46:07;;;;;;;18.33;12.68;;;;;;;22.49;69.10;99931.31;5070024;28;20123;-28
2022/08/30 02:48:32;;;;;;;19.65;13.60;;;;;;;22.34;69.81;99914.22;5087944;28;20115;-29
2022/08/30 02:51:08;;;;;;;15.65;12.35;;;;;;;22.36;69.81;99931.00;5088199;28;20035;-34
2022/08/30 02:53:34;;;;;;;14.82;11.60;;;;;;;22.47;69.67;99931.63;5069933;28;20353;-31
2022/08/30 02:56:00;;;;;;;21.13;12.35;;;;;;;22.57;68.94;99933.34;5087806;28;20503;-29
2022/08/30 02:58:27;;;;;;;17.67;12.60;;;;;;;22.57;68.73;99933.34;5087957;28;20044;-34
2022/08/30 03:00:52;;;;;;;14.80;11.93;;;;;;;22.39;69.91;99925.00;5088148;28;20020;-32
2022/08/30 03:03:18;;;;;;;20.70;12.75;;;;;;;22.48;70.21;99940.59;5087821;28;20027;-28
2022/08/30 03:05:43;;;;;;;18.25;12.63;;;;;;;22.36;70.22;99931.00;5088400;28;20102;-29
2022/08/30 03:08:10;;;;;;;16.40;12.07;;;;;;;22.44;70.32;99943.91;5069821;28;20030;-31
2022/08/30 03:10:37;;;;;;;17.80;12.55;;;;;;;22.64;69.55;99939.19;5069386;28;20132;-28
2022/08/30 03:13:04;;;;;;;23.70;13.70;;;;;;;22.53;70.16;99948.63;5087766;28;20403;-28
2022/08/30 03:15:30;;;;;;;18.42;13.68;;;;;;;22.57;69.33;99944.22;5087979;28;20576;-32
2022/08/30 03:17:56;;;;;;;16.67;13.07;;;;;;;22.52;69.50;99936.16;5069508;28;20070;-32
2022/08/30 03:20:22;;;;;;;16.80;12.00;;;;;;;22.29;70.39;99935.22;5069510;28;20111;-35
2022/08/30 03:22:48;;;;;;;15.48;11.77;;;;;;;22.34;70.99;99952.25;5069308;28;20039;-32
2022/08/30 03:25:14;;;;;;;16.27;12.73;;;;;;;21.95;72.94;99934.44;5087366;28;20028;-30
2022/08/30 03:27:40;;;;;;;14.93;13.32;;;;;;;22.19;73.18;99947.88;5069582;28;20028;-33
2022/08/30 03:30:07;;;;;;;17.58;12.40;;;;;;;22.14;73.46;99947.16;5087527;28;20071;-32
2022/08/30 03:32:32;;;;;;;18.33;13.50;;;;;;;22.12;73.66;99957.50;5068218;28;20032;-30
2022/08/30 03:34:58;;;;;;;16.52;12.55;;;;;;;22.16;72.54;99956.59;5087596;28;20068;-31
2022/08/30 03:37:24;;;;;;;16.45;13.00;;;;;;;22.14;72.91;99936.28;5087439;28;20078;-28
2022/08/30 03:39:50;;;;;;;16.55;12.23;;;;;;;22.26;71.89;99947.50;5068988;28;20031;-31
2022/08/30 03:42:16;;;;;;;16.67;13.00;;;;;;;22.11;73.28;99958.59;5087223;28;20181;-30
2022/08/30 03:44:41;;;;;;;20.98;14.25;;;;;;;22.16;73.11;99967.47;5087439;28;20089;-29
2022/08/30 03:47:07;;;;;;;16.38;13.13;;;;;;;21.86;74.70;99964.19;5087208;28;20036;-32
2022/08/30 03:49:33;;;;;;;15.32;13.43;;;;;;;21.86;74.93;99963.34;5087386;28;20046;-28
2022/08/30 03:51:59;;;;;;;18.55;12.35;;;;;;;21.97;74.45;99983.03;5087038;28;20566;-29
2022/08/30 03:54:24;;;;;;;17.23;12.82;;;;;;;21.87;75.18;99975.84;5087295;28;20028;-29
2022/08/30 03:56:50;;;;;;;16.25;12.77;;;;;;;22.07;74.58;99980.94;5087540;28;20024;-29
2022/08/30 03:59:15;;;;;;;18.48;14.02;;;;;;;22.02;75.22;99981.00;5087159;28;20031;-30
2022/08/30 04:01:41;;;;;;;17.08;12.85;;;;;;;21.85;75.16;99983.47;5086485;28;20111;-31
2022/08/30 04:04:07;;;;;;;16.33;12.98;;;;;;;21.95;74.57;99966.22;5086705;28;20060;-29
2022/08/30 04:06:33;;;;;;;19.45;14.10;;;;;;;21.95;75.74;99980.59;5068941;28;20457;-29
2022/08/30 04:08:59;;;;;;;16.45;13.38;;;;;;;21.93;74.43;99974.66;5068707;28;20036;-31
2022/08/30 04:11:25;;;;;;;17.55;13.63;;;;;;;22.00;74.97;99996.78;5087247;28;20019;-30
2022/08/30 04:13:50;;;;;;;15.90;13.35;;;;;;;21.81;75.98;99993.31;5069015;28;20032;-32
2022/08/30 04:16:18;;;;;;;17.73;13.23;;;;;;;21.80;76.00;99980.81;5086884;28;20024;-30
2022/08/30 04:18:43;;;;;;;18.88;13.65;;;;;;;21.77;76.94;100003.16;5068983;28;20252;-29
2022/08/30 04:21:09;;;;;;;15.43;13.73;;;;;;;21.81;77.04;99998.75;5087113;28;20495;-30
2022/08/30 04:23:34;;;;;;;17.55;13.63;;;;;;;21.99;75.73;99989.75;5087473;28;20031;-29
2022/08/30 04:26:00;;;;;;;16.65;13.40;;;;;;;22.19;74.80;99998.66;5068811;28;20019;-28
2022/08/30 04:28:25;;;;;;;19.88;13.07;;;;;;;22.04;75.11;99986.94;5087127;28;20035;-30
2022/08/30 04:30:51;;;;;;;18.48;12.88;;;;;;;22.22;76.07;100003.50;5086968;28;20024;-31
2022/08/30 04:33:16;;;;;;;17.73;13.82;;;;;;;22.31;74.70;99979.19;5087015;28;20107;-28
2022/08/30 04:35:45;;;;;;;19.27;14.35;;;;;;;22.42;74.17;100003.16;5086963;28;20781;-31
2022/08/30 04:38:12;;;;;;;19.45;13.75;;;;;;;22.52;74.10;99996.75;5068345;28;20504;-29
2022/08/30 04:40:41;;;;;;;18.13;13.60;;;;;;;22.62;73.84;99991.13;5086975;28;20705;-29
2022/08/30 04:43:06;;;;;;;23.45;15.20;;;;;;;22.60;73.58;99987.09;5068745;28;20502;-30
2022/08/30 04:45:32;;;;;;;17.88;12.98;;;;;;;22.65;73.00;100000.56;5087000;28;20055;-32
2022/08/30 04:47:57;;;;;;;18.35;13.73;;;;;;;22.63;73.12;99986.47;5086546;28;20052;-30
2022/08/30 04:50:23;;;;;;;19.30;13.63;;;;;;;22.84;73.24;99995.88;5068753;28;20028;-29
2022/08/30 04:52:48;;;;;;;19.27;13.25;;;;;;;22.93;72.35;100000.59;5086815;28;20043;-32
2022/08/30 04:55:14;;;;;;;16.67;14.40;;;;;;;22.95;72.11;99976.63;5068690;28;20415;-29
2022/08/30 04:57:40;;;;;;;21.75;15.18;;;;;;;22.92;72.67;100005.22;5068704;28;20032;-32
2022/08/30 05:00:10;;;;;;;18.73;15.38;;;;;;;22.81;71.61;99991.00;5086631;28;20458;-30
2022/08/30 05:02:36;;;;;;;17.33;14.07;;;;;;;22.83;71.65;99996.97;5086718;28;20031;-28
2022/08/30 05:07:46;;;;;;;17.45;14.25;;;;;;;22.79;72.50;100012.25;5086890;28;20063;-29
2022/08/30 05:10:11;;;;;;;16.38;13.40;;;;;;;22.73;72.02;100007.22;5086384;28;20070;-29
2022/08/30 05:12:38;;;;;;;15.90;13.93;;;;;;;22.76;72.17;99990.31;5088340;28;20036;-29
2022/08/30 05:15:04;;;;;;;18.33;14.07;;;;;;;23.10;71.35;100011.69;5071957;28;20028;-29
2022/08/30 05:17:31;;;;;;;19.00;13.82;;;;;;;23.16;71.35;100001.50;5071722;28;20040;-28
2022/08/30 05:19:56;;;;;;;18.30;13.73;;;;;;;23.27;70.35;100000.16;5071861;28;20062;-29
2022/08/30 05:22:22;;;;;;;16.90;13.85;;;;;;;23.33;70.19;99989.97;5090521;28;20071;-33
2022/08/30 05:24:48;;;;;;;15.30;13.48;;;;;;;23.53;70.41;100007.78;5090556;28;20031;-29
2022/08/30 05:27:14;;;;;;;15.25;12.60;;;;;;;23.57;69.54;100011.50;5071877;28;20468;-28
2022/08/30 05:29:40;;;;;;;16.75;13.30;;;;;;;23.47;68.92;100009.78;5071844;28;20032;-32
2022/08/30 05:32:07;;;;;;;15.68;13.52;;;;;;;23.62;69.35;100017.63;5089533;28;20085;-29
2022/08/30 05:34:33;;;;;;;14.63;12.20;;;;;;;23.46;69.77;100002.75;5071763;28;20415;-29
2022/08/30 05:36:59;;;;;;;16.90;13.18;;;;;;;23.58;69.44;100002.19;5071568;28;20505;-30
2022/08/30 05:39:25;;;;;;;15.52;12.40;;;;;;;23.76;66.98;100000.41;5090057;28;20028;-29
2022/08/30 05:41:56;;;;;;;18.80;12.82;;;;;;;23.74;67.41;100002.66;5089858;28;20028;-29
2022/08/30 05:44:21;;;;;;;18.95;13.27;;;;;;;23.98;66.77;100027.69;5071419;28;20479;-28
2022/08/30 05:46:47;;;;;;;20.48;13.25;;;;;;;24.08;66.55;100023.13;5089270;28;20039;-30
2022/08/30 05:49:14;;;;;;;14.82;12.00;;;;;;;23.97;66.50;100020.66;5089772;28;20112;-33
2022/08/30 05:51:40;;;;;;;16.33;12.90;;;;;;;24.20;66.07;100028.81;5089514;28;20040;-31
2022/08/30 05:54:06;;;;;;;18.08;13.30;;;;;;;24.10;65.44;100018.97;5070924;28;20036;-28
2022/08/30 05:56:34;;;;;;;17.58;12.65;;;;;;;24.13;65.48;100003.91;5089636;28;20040;-29
2022/08/30 05:59:00;;;;;;;15.45;12.57;;;;;;;24.30;64.91;100014.94;5071065;28;20156;-31
2022/08/30 06:01:34;;;;;;;18.23;13.73;;;;;;;24.57;64.89;100024.06;5089208;28;20020;-30
2022/08/30 06:04:02;;;;;;;13.55;11.43;;;;;;;24.66;63.19;100028.47;5070935;28;20160;-31
2022/08/30 06:06:28;;;;;;;;;;;;;;;24.82;62.83;100026.09;5071632;28;20030;-31
2022/08/30 06:08:54;;;;;;;17.27;12.57;;;;;;;24.80;62.78;100027.53;5089277;28;19918;-30
2022/08/30 06:11:22;;;;;;;20.50;13.73;;;;;;;24.88;62.17;100023.25;5071026;28;20036;-29
2022/08/30 06:13:48;;;;;;;17.33;13.65;;;;;;;25.03;61.20;100022.81;5070620;28;20060;-29
2022/08/30 06:16:17;;;;;;;16.00;12.77;;;;;;;25.10;60.55;100020.41;5070846;28;20036;-31
2022/08/30 06:18:43;;;;;;;16.60;13.68;;;;;;;25.04;61.64;100022.47;5070706;28;20021;-32
2022/08/30 06:21:22;;;;;;;18.50;14.25;;;;;;;25.21;61.09;100021.75;5089263;28;20040;-29
2022/08/30 06:23:48;;;;;;;18.55;13.82;;;;;;;25.48;61.33;100014.41;5069968;28;20412;-28
2022/08/30 06:26:14;;;;;;;22.67;16.17;;;;;;;25.94;59.87;100025.84;5070356;28;20028;-29
2022/08/30 06:28:40;;;;;;;19.95;14.35;;;;;;;25.96;58.46;100040.78;5070459;28;20039;-30
2022/08/30 06:31:07;;;;;;;17.13;12.15;;;;;;;25.99;57.06;100045.59;5088935;28;20032;-30
2022/08/30 06:33:33;;;;;;;20.38;12.75;;;;;;;25.98;57.88;100051.38;5070711;28;20043;-30
2022/08/30 06:36:07;;;;;;;15.45;12.13;;;;;;;25.95;58.47;100055.56;5070322;28;20828;-29
2022/08/30 06:38:34;;;;;;;16.83;12.32;;;;;;;25.95;59.14;100055.56;5070506;28;20143;-29
2022/08/30 06:41:03;;;;;;;16.52;12.02;;;;;;;26.26;58.36;100044.44;5070168;28;20550;-31
2022/08/30 07:45:02;;;;;;;13.77;11.77;;;;;;;27.43;53.48;100055.09;4852128;27;8322745;-30
2022/08/30 07:47:27;;;;;;;15.60;12.00;;;;;;;27.81;51.31;100051.44;5084905;28;20491;-29
2022/08/30 07:49:53;;;;;;;15.50;11.40;;;;;;;28.07;51.27;100055.88;5083470;28;20051;-31
2022/08/30 07:52:18;;;;;;;19.25;11.23;;;;;;;28.47;50.84;100054.53;5083423;28;20024;-30
2022/08/30 07:54:44;;;;;;;18.77;11.63;;;;;;;28.49;49.39;100052.25;5083355;28;20125;-32
2022/08/30 07:57:09;;;;;;;23.00;12.10;;;;;;;28.58;48.33;100062.00;5083107;28;20028;-30
2022/08/30 07:59:35;;;;;;;13.43;10.48;;;;;;;28.42;48.91;100037.16;5083299;28;20032;-30
2022/08/30 08:02:00;;;;;;;16.70;10.15;;;;;;;28.49;49.38;100036.59;5098420;28;20114;-30
2022/08/30 08:04:25;;;;;;;16.08;10.68;;;;;;;28.55;49.37;100045.44;5082843;28;20032;-34
2022/08/30 08:06:51;;;;;;;27.40;10.85;;;;;;;28.65;48.19;100064.22;5083305;28;20032;-32
2022/08/30 08:09:17;;;;;;;13.15;10.50;;;;;;;28.69;49.74;100062.38;5083133;28;20028;-33
2022/08/30 08:11:43;;;;;;;16.23;10.90;;;;;;;28.88;50.27;100070.06;5082884;28;20019;-32
2022/08/30 08:14:09;;;;;;;13.82;10.45;;;;;;;28.88;49.30;100047.31;5081329;28;20464;-29
2022/08/30 08:16:35;;;;;;;13.90;10.60;;;;;;;28.98;49.54;100052.34;5080128;28;20036;-30
2022/08/30 08:19:01;;;;;;;15.00;10.45;;;;;;;29.22;49.81;100057.84;5080139;28;20028;-31
2022/08/30 08:21:27;;;;;;;14.40;10.05;;;;;;;29.61;49.44;100057.44;5083070;28;20427;-36
2022/08/30 08:23:53;;;;;;;17.83;11.32;;;;;;;29.59;47.29;100044.03;5082103;28;20039;-28
2022/08/30 08:26:19;;;;;;;15.55;10.23;;;;;;;29.74;46.19;100041.72;5081372;28;20059;-34
2022/08/30 08:28:45;;;;;;;12.73;10.25;;;;;;;30.01;46.65;100038.16;5081494;28;20503;-30
2022/08/30 08:31:22;;;;;;;15.85;10.45;;;;;;;29.78;45.43;100040.69;5081396;28;20024;-29
2022/08/30 08:33:48;;;;;;;14.10;9.75;;;;;;;29.98;44.67;100043.59;5081538;28;20062;-32
2022/08/30 08:36:14;;;;;;;15.25;10.10;;;;;;;30.18;45.50;100030.75;5082485;28;20024;-33
2022/08/30 08:38:40;;;;;;;15.82;10.40;;;;;;;30.40;44.55;100054.97;5081100;28;20028;-33
2022/08/30 08:41:27;;;;;;;12.70;10.18;;;;;;;30.51;44.36;100052.50;5082900;28;20059;-31
2022/08/30 08:43:53;;;;;;;16.27;10.50;;;;;;;30.51;43.98;100051.69;5081951;28;20028;-31
2022/08/30 08:46:27;;;;;;;14.35;10.75;;;;;;;30.53;44.08;100052.16;5094885;28;20842;-30
2022/08/30 08:48:56;;;;;;;15.07;9.30;;;;;;;30.58;42.37;100033.41;5101260;28;20032;-34
2022/08/30 08:54:32;;;;;;;15.15;10.48;;;;;;;30.97;42.74;100052.06;5078286;28;20055;-31
2022/08/30 08:56:58;;;;;;;14.55;10.50;;;;;;;31.16;43.05;100041.13;5068828;28;20036;-32
2022/08/30 08:59:23;;;;;;;16.55;10.35;;;;;;;31.33;42.16;100034.41;5067261;28;20017;-38
2022/08/30 09:01:49;;;;;;;16.40;9.38;;;;;;;31.39;41.00;100026.66;5068913;28;20029;-31
2022/08/30 09:04:25;;;;;;;14.38;9.65;;;;;;;31.20;40.32;100044.75;5068468;28;20029;-30
2022/08/30 09:07:05;;;;;;;15.50;10.10;;;;;;;31.34;43.03;100040.69;5068548;28;20058;-29
2022/08/30 09:09:33;;;;;;;14.15;9.48;;;;;;;31.31;40.12;100022.16;5067266;28;20040;-30
2022/08/30 09:11:59;;;;;;;17.70;9.75;;;;;;;31.51;40.57;100034.81;5067161;28;20033;-30
2022/08/30 09:14:31;;;;;;;12.30;9.77;;;;;;;31.43;42.39;100030.28;5068565;28;20420;-30
2022/08/30 09:17:01;;;;;;;14.10;10.55;;;;;;;31.44;42.85;100023.63;5066636;28;20086;-31
2022/08/30 09:19:35;;;;;;;14.10;9.95;;;;;;;31.56;42.28;100019.94;5066750;28;20032;-30
2022/08/30 09:22:32;;;;;;;16.20;9.68;;;;;;;31.89;39.15;100022.19;5068250;28;20033;-29
2022/08/30 09:25:19;;;;;;;14.18;9.30;;;;;;;31.75;40.32;100016.38;5067814;28;20028;-33
2022/08/30 09:27:48;;;;;;;14.98;10.30;;;;;;;31.96;40.54;100016.81;5066628;28;20032;-30
2022/08/30 09:30:25;;;;;;;16.67;8.98;;;;;;;31.93;38.97;100009.25;5066881;28;20530;-36
2022/08/30 09:32:55;;;;;;;14.50;9.43;;;;;;;32.14;38.17;100002.56;5066827;28;20039;-31
2022/08/30 09:35:35;;;;;;;12.32;9.05;;;;;;;32.21;40.00;100011.00;5067994;28;20025;-30
2022/08/30 09:38:05;;;;;;;13.98;9.07;;;;;;;32.64;40.67;100006.22;5067957;28;20126;-36
2022/08/30 09:40:38;;;;;;;13.45;9.32;;;;;;;32.63;36.99;100016.47;5068068;28;20483;-29
2022/08/30 09:43:10;;;;;;;16.38;9.02;;;;;;;32.20;36.27;99993.66;5067612;28;20044;-33
2022/08/30 09:45:41;;;;;;;15.13;8.55;;;;;;;32.39;38.88;99989.22;5066301;28;20049;-32
2022/08/30 09:48:20;;;;;;;14.00;8.27;;;;;;;32.72;37.38;99983.06;5066574;28;20028;-29
2022/08/30 09:50:52;;;;;;;14.52;7.90;;;;;;;32.99;37.19;99989.38;5068162;28;20043;-30
2022/08/30 09:53:24;;;;;;;13.52;8.38;;;;;;;33.20;35.58;99988.94;5066731;28;20111;-30
2022/08/30 09:55:50;;;;;;;13.05;8.15;;;;;;;33.34;35.46;99987.53;5067796;28;20111;-30
2022/08/30 09:58:37;;;;;;;13.90;7.50;;;;;;;33.35;35.05;99972.53;5067904;28;20111;-29
2022/08/30 10:01:14;;;;;;;13.65;7.60;;;;;;;33.42;35.47;99969.84;5067568;28;20028;-30
2022/08/30 10:03:55;;;;;;;15.30;8.60;;;;;;;33.46;36.54;99978.97;5067763;28;20039;-33
2022/08/30 10:06:32;;;;;;;13.20;7.72;;;;;;;33.61;35.76;99982.72;5065208;28;20117;-32
2022/08/30 10:09:11;;;;;;;11.20;7.93;;;;;;;33.55;35.39;99976.72;5065746;28;20098;-31
2022/08/30 10:12:00;;;;;;;13.82;7.80;;;;;;;33.53;35.20;99973.56;5067382;28;20028;-30
2022/08/30 10:14:31;;;;;;;9.73;7.78;;;;;;;33.72;33.86;99977.34;5066617;28;20055;-29
2022/08/30 10:17:11;;;;;;;12.48;8.00;;;;;;;33.61;34.98;99960.63;5067329;28;20029;-29
2022/08/30 10:19:37;;;;;;;14.18;7.80;;;;;;;33.52;34.42;99952.59;5065697;28;20454;-29
2022/08/30 10:23:10;;;;;;;14.77;8.45;;;;;;;33.82;34.01;99957.31;5067415;28;20029;-33
2022/08/30 10:25:44;;;;;;;11.95;7.65;;;;;;;33.71;33.03;99934.25;5024564;28;20068;-30
2022/08/30 10:28:30;;;;;;;13.43;7.45;;;;;;;33.93;33.57;99938.81;5007775;28;20056;-33
2022/08/30 10:31:02;;;;;;;15.13;8.20;;;;;;;33.61;34.27;99933.78;5044602;28;20036;-30
2022/08/30 10:33:46;;;;;;;13.27;8.00;;;;;;;34.24;35.12;99944.28;5065795;28;20032;-29
2022/08/30 10:36:13;;;;;;;12.77;7.10;;;;;;;34.48;35.04;99931.81;5066434;28;20044;-30
2022/08/30 10:38:45;;;;;;;15.77;7.22;;;;;;;34.34;33.01;99922.22;5065563;28;20848;-29
2022/08/30 10:41:32;;;;;;;14.63;7.43;;;;;;;34.27;34.16;99933.25;5065328;28;20123;-31
2022/08/30 10:44:16;;;;;;;13.73;7.55;;;;;;;34.11;33.31;99913.31;5066831;28;20113;-30
2022/08/30 10:47:09;;;;;;;11.38;6.90;;;;;;;34.13;34.61;99933.09;5084395;28;20139;-30
2022/08/30 10:49:39;;;;;;;13.18;7.28;;;;;;;34.30;34.03;99937.19;5087395;28;20020;-34
2022/08/30 10:52:27;;;;;;;11.50;7.50;;;;;;;34.36;34.66;99914.31;5068618;28;20032;-31
2022/08/30 10:55:04;;;;;;;12.65;7.63;;;;;;;34.35;34.11;99921.03;5068197;28;20028;-34
2022/08/30 10:57:30;;;;;;;12.75;7.22;;;;;;;34.28;32.30;99926.50;5086690;28;20924;-30
2022/08/30 11:00:00;;;;;;;11.38;7.57;;;;;;;34.72;33.17;99917.34;5086663;28;20103;-32
2022/08/30 11:02:37;;;;;;;12.05;7.40;;;;;;;34.87;33.05;99917.44;5092099;28;20057;-35
2022/08/30 11:05:12;;;;;;;11.75;7.43;;;;;;;34.96;33.89;99912.31;5084523;28;20031;-30
2022/08/30 11:07:49;;;;;;;14.23;7.50;;;;;;;34.86;32.71;99913.88;5106322;28;20053;-33
2022/08/30 11:10:36;;;;;;;13.13;7.95;;;;;;;34.84;31.87;99916.25;5097048;28;20051;-33
2022/08/30 11:13:09;;;;;;;12.82;7.35;;;;;;;35.14;31.22;99893.78;5079340;28;20028;-31
2022/08/30 11:15:51;;;;;;;12.48;7.32;;;;;;;35.43;30.84;99885.59;5077384;28;20030;-30
2022/08/30 11:18:18;;;;;;;8.98;7.15;;;;;;;35.49;30.49;99895.16;5067973;28;20027;-31
2022/08/30 11:20:49;;;;;;;12.65;6.97;;;;;;;35.00;30.83;99896.50;5068265;28;20081;-30
2022/08/30 11:23:18;;;;;;;10.32;7.30;;;;;;;35.50;31.83;99891.16;5086082;28;20036;-31
2022/08/30 11:25:51;;;;;;;14.60;8.18;;;;;;;35.89;31.40;99890.47;5068061;28;20127;-30
2022/08/30 11:28:35;;;;;;;9.75;6.65;;;;;;;35.72;31.29;99886.50;5086168;28;20070;-33
2022/08/30 11:31:07;;;;;;;14.77;7.63;;;;;;;35.25;30.27;99876.44;5086108;28;20020;-31
2022/08/30 11:33:54;;;;;;;11.90;7.30;;;;;;;35.53;30.72;99884.84;5068005;28;20112;-30
2022/08/30 11:36:29;;;;;;;11.65;7.32;;;;;;;35.71;31.06;99876.56;5067825;28;20093;-28
2022/08/30 11:38:54;;;;;;;13.23;7.68;;;;;;;36.06;29.88;99876.97;5085554;28;20469;-33
2022/08/30 11:41:36;;;;;;;13.45;7.40;;;;;;;36.46;28.78;99861.88;5086072;28;20103;-29
2022/08/30 11:44:20;;;;;;;11.23;6.63;;;;;;;36.20;30.34;99865.91;5067691;28;20044;-33
2022/08/30 11:46:53;;;;;;;12.27;7.70;;;;;;;35.77;31.90;99846.47;5067896;28;20063;-32
2022/08/30 11:49:19;;;;;;;10.50;7.53;;;;;;;36.37;29.51;99853.16;5067686;28;20028;-29
2022/08/30 11:52:08;;;;;;;11.27;6.82;;;;;;;37.16;27.97;99837.06;5086333;28;20028;-30
2022/08/30 11:55:04;;;;;;;11.00;6.65;;;;;;;36.92;28.94;99855.44;5086309;28;20028;-31
2022/08/30 11:57:57;;;;;;;10.82;7.28;;;;;;;36.56;29.62;99849.97;5067783;28;20135;-31
2022/08/30 12:00:46;;;;;;;13.85;7.57;;;;;;;35.96;30.18;99829.44;5067934;28;20043;-29
2022/08/30 12:03:15;;;;;;;13.60;7.75;;;;;;;36.18;29.22;99846.06;5085848;28;20311;-32
2022/08/30 12:05:44;;;;;;;15.02;7.25;;;;;;;36.01;30.88;99844.88;5085697;28;20028;-31
2022/08/30 12:08:33;;;;;;;11.68;6.95;;;;;;;36.32;29.37;99846.03;5067510;28;20069;-30
2022/08/30 12:11:01;;;;;;;11.82;6.60;;;;;;;36.07;29.51;99840.50;5076984;28;20105;-29
2022/08/30 12:13:41;;;;;;;13.25;6.40;;;;;;;36.16;30.29;99843.69;5067633;28;20570;-31
2022/08/30 12:16:13;;;;;;;13.88;7.18;;;;;;;36.70;29.24;99849.16;5067612;28;20028;-30
2022/08/30 12:18:59;;;;;;;8.60;6.75;;;;;;;36.92;27.89;99826.81;5067369;28;20032;-29
2022/08/30 12:21:29;;;;;;;11.55;7.03;;;;;;;36.48;27.16;99837.28;5067672;28;20065;-29
2022/08/30 12:24:35;;;;;;;15.05;6.95;;;;;;;36.50;29.28;99846.00;5067420;28;20128;-34
2022/08/30 12:27:19;;;;;;;12.63;6.68;;;;;;;36.64;29.66;99834.09;5067057;28;20131;-29
2022/08/30 12:29:58;;;;;;;10.85;6.68;;;;;;;36.98;27.45;99822.44;5086963;28;20039;-36
2022/08/30 12:32:24;;;;;;;12.13;6.68;;;;;;;37.00;28.25;99822.81;5089833;28;20028;-30
2022/08/30 12:34:59;;;;;;;16.15;8.07;;;;;;;36.60;29.40;99808.28;5089564;28;20114;-31
2022/08/30 12:37:35;;;;;;;14.63;7.10;;;;;;;36.66;28.16;99809.50;5071349;28;20032;-29